sensor_id;sensor_type;location;lat;lon;timestamp;pressure;altitude;pressure_sealevel;temperature;humidity
46614;BME280;32338;50.430;6.806;2023-01-09T00:01:47;65757.78;;;3.11;100.00
46614;BME280;32338;50.430;6.806;2023-01-09T00:04:23;65759.81;;;3.10;100.00
46614;BME280;32338;50.430;6.806;2023-01-09T00:07:00;65758.69;;;3.09;100.00
46614;BME280;32338;50.430;6.806;2023-01-09T00:09:34;65757.22;;;3.10;100.00
46614;BME280;32338;50.430;6.806;2023-01-09T00:12:19;65757.56;;;3.08;100.00
46614;BME280;32338;50.430;6.806;2023-01-09T00:15:01;65752.53;;;3.03;100.00
46614;BME280;32338;50.430;6.806;2023-01-09T00:17:50;65750.69;;;3.06;100.00
46614;BME280;32338;50.430;6.806;2023-01-09T00:20:27;65751.06;;;3.04;100.00
46614;BME280;32338;50.430;6.806;2023-01-09T00:23:16;65755.19;;;3.11;100.00
46614;BME280;32338;50.430;6.806;2023-01-09T00:25:46;65752.75;;;3.06;100.00
46614;BME280;32338;50.430;6.806;2023-01-09T00:28:24;65757.22;;;3.10;100.00
46614;BME280;32338;50.430;6.806;2023-01-09T00:31:03;65751.41;;;3.02;100.00
46614;BME280;32338;50.430;6.806;2023-01-09T00:36:45;65748.28;;;3.02;100.00
46614;BME280;32338;50.430;6.806;2023-01-09T00:39:35;65747.16;;;3.01;100.00
46614;BME280;32338;50.430;6.806;2023-01-09T00:42:12;65746.03;;;3.00;100.00
46614;BME280;32338;50.430;6.806;2023-01-09T00:44:49;65747.50;;;2.99;100.00
46614;BME280;32338;50.430;6.806;2023-01-09T00:47:25;65751.19;;;3.00;100.00
46614;BME280;32338;50.430;6.806;2023-01-09T00:50:06;65751.41;;;3.02;100.00
46614;BME280;32338;50.430;6.806;2023-01-09T00:52:44;65751.28;;;3.07;100.00
46614;BME280;32338;50.430;6.806;2023-01-09T00:55:28;65760.50;;;3.06;100.00
46614;BME280;32338;50.430;6.806;2023-01-09T00:58:06;65754.06;;;3.10;100.00
46614;BME280;32338;50.430;6.806;2023-01-09T01:00:50;65761.69;;;3.14;100.00
46614;BME280;32338;50.430;6.806;2023-01-09T01:03:17;65761.69;;;3.14;100.00
46614;BME280;32338;50.430;6.806;2023-01-09T01:05:45;65758.88;;;3.12;100.00
46614;BME280;32338;50.430;6.806;2023-01-09T01:08:29;65757.56;;;3.08;100.00
46614;BME280;32338;50.430;6.806;2023-01-09T01:10:56;65755.75;;;3.11;100.00
46614;BME280;32338;50.430;6.806;2023-01-09T01:13:26;65752.41;;;3.08;100.00
46614;BME280;32338;50.430;6.806;2023-01-09T01:16:01;65762.81;;;3.15;100.00
46614;BME280;32338;50.430;6.806;2023-01-09T01:18:40;65761.47;;;3.12;100.00
46614;BME280;32338;50.430;6.806;2023-01-09T01:21:18;65769.19;;;3.23;100.00
46614;BME280;32338;50.430;6.806;2023-01-09T01:24:08;65764.72;;;3.19;100.00
46614;BME280;32338;50.430;6.806;2023-01-09T01:26:48;65776.44;;;3.30;100.00
46614;BME280;32338;50.430;6.806;2023-01-09T01:29:24;65774.00;;;3.26;100.00
46614;BME280;32338;50.430;6.806;2023-01-09T01:32:08;65766.72;;;3.19;100.00
46614;BME280;32338;50.430;6.806;2023-01-09T01:34:44;65768.41;;;3.20;100.00
46614;BME280;32338;50.430;6.806;2023-01-09T01:37:18;65768.97;;;3.21;100.00
46614;BME280;32338;50.430;6.806;2023-01-09T01:40:04;65763.59;;;3.18;100.00
46614;BME280;32338;50.430;6.806;2023-01-09T01:42:51;65760.22;;;3.15;100.00
46614;BME280;32338;50.430;6.806;2023-01-09T01:45:31;65760.22;;;3.15;100.00
46614;BME280;32338;50.430;6.806;2023-01-09T01:48:16;65758.75;;;3.16;100.00
46614;BME280;32338;50.430;6.806;2023-01-09T01:50:54;65766.53;;;3.16;100.00
46614;BME280;32338;50.430;6.806;2023-01-09T01:53:39;65753.72;;;3.12;100.00
46614;BME280;32338;50.430;6.806;2023-01-09T01:56:16;65751.28;;;3.07;100.00
46614;BME280;32338;50.430;6.806;2023-01-09T01:58:53;65755.00;;;3.08;100.00
46614;BME280;32338;50.430;6.806;2023-01-09T02:01:29;65753.50;;;3.09;100.00
46614;BME280;32338;50.430;6.806;2023-01-09T02:04:03;65755.00;;;3.08;100.00
46614;BME280;32338;50.430;6.806;2023-01-09T02:06:52;65756.09;;;3.09;100.00
46614;BME280;32338;50.430;6.806;2023-01-09T02:09:32;65758.13;;;3.08;100.00
46614;BME280;32338;50.430;6.806;2023-01-09T02:12:17;65754.63;;;3.10;100.00
46614;BME280;32338;50.430;6.806;2023-01-09T02:15:06;65758.53;;;3.14;100.00
46614;BME280;32338;50.430;6.806;2023-01-09T02:18:12;65759.25;;;3.10;100.00
46614;BME280;32338;50.430;6.806;2023-01-09T02:20:55;65749.03;;;3.05;100.00
46614;BME280;32338;50.430;6.806;2023-01-09T02:30:08;65737.44;;;2.89;100.00
46614;BME280;32338;50.430;6.806;2023-01-09T02:36:00;65731.84;;;2.84;100.00
46614;BME280;32338;50.430;6.806;2023-01-09T02:38:55;65732.03;;;2.87;100.00
46614;BME280;32338;50.430;6.806;2023-01-09T02:41:38;65737.06;;;2.91;100.00
46614;BME280;32338;50.430;6.806;2023-01-09T02:44:27;65733.38;;;2.90;100.00
46614;BME280;32338;50.430;6.806;2023-01-09T02:50:19;65746.03;;;3.00;100.00
46614;BME280;32338;50.430;6.806;2023-01-09T02:53:24;65753.66;;;3.04;100.00
46614;BME280;32338;50.430;6.806;2023-01-09T02:56:03;65746.22;;;3.02;100.00
46614;BME280;32338;50.430;6.806;2023-01-09T02:58:46;65757.34;;;3.05;100.00
46614;BME280;32338;50.430;6.806;2023-01-09T03:01:25;65755.19;;;3.11;100.00
46614;BME280;32338;50.430;6.806;2023-01-09T03:04:00;65766.72;;;3.19;100.00
46614;BME280;32338;50.430;6.806;2023-01-09T03:06:37;65771.78;;;3.23;100.00
46614;BME280;32338;50.430;6.806;2023-01-09T03:09:16;65756.09;;;3.09;100.00
46614;BME280;32338;50.430;6.806;2023-01-09T03:11:49;65745.31;;;3.04;100.00
46614;BME280;32338;50.430;6.806;2023-01-09T03:14:22;65746.03;;;3.00;100.00
46614;BME280;32338;50.430;6.806;2023-01-09T03:17:01;65740.44;;;2.95;100.00
46614;BME280;32338;50.430;6.806;2023-01-09T03:19:36;65731.69;;;2.89;100.00
46614;BME280;32338;50.430;6.806;2023-01-09T03:22:08;65731.47;;;2.86;100.00
46614;BME280;32338;50.430;6.806;2023-01-09T03:24:42;65726.09;;;2.84;100.00
46614;BME280;32338;50.430;6.806;2023-01-09T03:27:14;65723.63;;;2.79;100.00
46614;BME280;32338;50.430;6.806;2023-01-09T03:29:52;65719.72;;;2.75;100.00
46614;BME280;32338;50.430;6.806;2023-01-09T03:32:23;65719.28;;;2.70;100.00
46614;BME280;32338;50.430;6.806;2023-01-09T03:35:04;65707.97;;;2.65;100.00
46614;BME280;32338;50.430;6.806;2023-01-09T03:37:34;65695.53;;;2.58;100.00
46614;BME280;32338;50.430;6.806;2023-01-09T03:40:01;65693.63;;;2.54;100.00
46614;BME280;32338;50.430;6.806;2023-01-09T03:42:27;65692.31;;;2.50;100.00
46614;BME280;32338;50.430;6.806;2023-01-09T03:44:54;65685.59;;;2.44;100.00
46614;BME280;32338;50.430;6.806;2023-01-09T03:47:28;65684.69;;;2.46;100.00
46614;BME280;32338;50.430;6.806;2023-01-09T03:49:58;65682.78;;;2.41;100.00
46614;BME280;32338;50.430;6.806;2023-01-09T03:52:27;65698.81;;;2.54;100.00
46614;BME280;32338;50.430;6.806;2023-01-09T03:54:56;65680.78;;;2.42;100.00
46614;BME280;32338;50.430;6.806;2023-01-09T03:57:32;65680.38;;;2.37;100.00
46614;BME280;32338;50.430;6.806;2023-01-09T04:00:01;65672.41;;;2.34;100.00
46614;BME280;32338;50.430;6.806;2023-01-09T04:02:28;65686.50;;;2.42;100.00
46614;BME280;32338;50.430;6.806;2023-01-09T04:04:55;65667.69;;;2.27;100.00
46614;BME280;32338;50.430;6.806;2023-01-09T04:07:25;65662.44;;;2.20;100.00
46614;BME280;32338;50.430;6.806;2023-01-09T04:09:57;65651.47;;;2.13;100.00
46614;BME280;32338;50.430;6.806;2023-01-09T04:12:30;65649.81;;;2.11;100.00
46614;BME280;32338;50.430;6.806;2023-01-09T04:14:59;65647.22;;;2.11;100.00
46614;BME280;32338;50.430;6.806;2023-01-09T04:17:28;65648.34;;;2.12;100.00
46614;BME280;32338;50.430;6.806;2023-01-09T04:19:58;65649.41;;;2.06;100.00
46614;BME280;32338;50.430;6.806;2023-01-09T04:22:30;65640.50;;;2.05;100.00
46614;BME280;32338;50.430;6.806;2023-01-09T04:25:06;65641.22;;;2.01;100.00
46614;BME280;32338;50.430;6.806;2023-01-09T04:27:35;65643.03;;;1.98;100.00
46614;BME280;32338;50.430;6.806;2023-01-09T04:30:06;65625.22;;;1.88;100.00
46614;BME280;32338;50.430;6.806;2023-01-09T04:32:36;65618.16;;;1.84;100.00
46614;BME280;32338;50.430;6.806;2023-01-09T04:35:05;65605.28;;;1.72;100.00
46614;BME280;32338;50.430;6.806;2023-01-09T04:37:33;65602.50;;;1.70;100.00
46614;BME280;32338;50.430;6.806;2023-01-09T04:40:01;65601.94;;;1.69;100.00
46614;BME280;32338;50.430;6.806;2023-01-09T04:42:38;65612.34;;;1.76;100.00
46614;BME280;32338;50.430;6.806;2023-01-09T04:45:09;65626.88;;;1.90;100.00
46614;BME280;32338;50.430;6.806;2023-01-09T04:47:49;65635.06;;;1.95;100.00
46614;BME280;32338;50.430;6.806;2023-01-09T04:50:18;65648.84;;;2.05;100.00
46614;BME280;32338;50.430;6.806;2023-01-09T04:52:47;65650.03;;;2.14;100.00
46614;BME280;32338;50.430;6.806;2023-01-09T04:55:22;65659.09;;;2.17;100.00
46614;BME280;32338;50.430;6.806;2023-01-09T04:57:53;65661.78;;;2.24;100.00
46614;BME280;32338;50.430;6.806;2023-01-09T05:00:20;65665.69;;;2.28;100.00
46614;BME280;32338;50.430;6.806;2023-01-09T05:02:50;65680.78;;;2.42;100.00
46614;BME280;32338;50.430;6.806;2023-01-09T05:05:17;65679.25;;;2.36;100.00
46614;BME280;32338;50.430;6.806;2023-01-09T05:07:47;65674.97;;;2.34;100.00
46614;BME280;32338;50.430;6.806;2023-01-09T05:10:22;65685.38;;;2.41;100.00
46614;BME280;32338;50.430;6.806;2023-01-09T05:12:56;65677.41;;;2.39;100.00
46614;BME280;32338;50.430;6.806;2023-01-09T05:15:25;65684.50;;;2.43;100.00
46614;BME280;32338;50.430;6.806;2023-01-09T05:17:52;65684.50;;;2.43;100.00
46614;BME280;32338;50.430;6.806;2023-01-09T05:20:19;65691.41;;;2.52;100.00
46614;BME280;32338;50.430;6.806;2023-01-09T05:22:54;65693.63;;;2.54;100.00
46614;BME280;32338;50.430;6.806;2023-01-09T05:25:23;65706.31;;;2.63;100.00
46614;BME280;32338;50.430;6.806;2023-01-09T05:27:56;65710.78;;;2.67;100.00
46614;BME280;32338;50.430;6.806;2023-01-09T05:30:26;65708.31;;;2.63;100.00
46614;BME280;32338;50.430;6.806;2023-01-09T05:32:53;65699.03;;;2.56;100.00
46614;BME280;32338;50.430;6.806;2023-01-09T05:35:20;65701.81;;;2.59;100.00
46614;BME280;32338;50.430;6.806;2023-01-09T05:37:47;65690.28;;;2.51;100.00
46614;BME280;32338;50.430;6.806;2023-01-09T05:40:24;65700.91;;;2.61;100.00
46614;BME280;32338;50.430;6.806;2023-01-09T05:43:01;65697.34;;;2.55;100.00
46614;BME280;32338;50.430;6.806;2023-01-09T05:45:30;65692.88;;;2.51;100.00
46614;BME280;32338;50.430;6.806;2023-01-09T05:48:01;65692.31;;;2.50;100.00
46614;BME280;32338;50.430;6.806;2023-01-09T05:50:28;65696.78;;;2.54;100.00
46614;BME280;32338;50.430;6.806;2023-01-09T05:52:58;65699.38;;;2.54;100.00
46614;BME280;32338;50.430;6.806;2023-01-09T05:55:26;65704.84;;;2.64;100.00
46614;BME280;32338;50.430;6.806;2023-01-09T05:57:53;65706.50;;;2.66;100.00
46614;BME280;32338;50.430;6.806;2023-01-09T06:00:22;65700.91;;;2.61;100.00
46614;BME280;32338;50.430;6.806;2023-01-09T06:02:52;65703.31;;;2.58;100.00
46614;BME280;32338;50.430;6.806;2023-01-09T06:05:21;65697.91;;;2.55;100.00
46614;BME280;32338;50.430;6.806;2023-01-09T06:07:49;65689.72;;;2.50;100.00
46614;BME280;32338;50.430;6.806;2023-01-09T06:10:22;65692.31;;;2.50;100.00
46614;BME280;32338;50.430;6.806;2023-01-09T06:12:50;65699.38;;;2.54;100.00
46614;BME280;32338;50.430;6.806;2023-01-09T06:15:30;65698.81;;;2.54;100.00
46614;BME280;32338;50.430;6.806;2023-01-09T06:18:01;65698.25;;;2.53;100.00
46614;BME280;32338;50.430;6.806;2023-01-09T06:20:32;65706.84;;;2.64;100.00
46614;BME280;32338;50.430;6.806;2023-01-09T06:23:03;65710.22;;;2.67;100.00
46614;BME280;32338;50.430;6.806;2023-01-09T06:25:33;65699.78;;;2.59;100.00
46614;BME280;32338;50.430;6.806;2023-01-09T06:28:09;65724.00;;;2.77;100.00
46614;BME280;32338;50.430;6.806;2023-01-09T06:30:41;65707.19;;;2.62;100.00
46614;BME280;32338;50.430;6.806;2023-01-09T06:33:09;65709.66;;;2.66;100.00
46614;BME280;32338;50.430;6.806;2023-01-09T06:35:36;65715.03;;;2.69;100.00
46614;BME280;32338;50.430;6.806;2023-01-09T06:38:03;65705.72;;;2.63;100.00
46614;BME280;32338;50.430;6.806;2023-01-09T06:40:33;65698.88;;;2.61;100.00
46614;BME280;32338;50.430;6.806;2023-01-09T06:43:00;65713.38;;;2.67;100.00
46614;BME280;32338;50.430;6.806;2023-01-09T06:45:30;65714.47;;;2.68;100.00
46614;BME280;32338;50.430;6.806;2023-01-09T06:48:05;65704.25;;;2.64;100.00
46614;BME280;32338;50.430;6.806;2023-01-09T06:50:38;65709.31;;;2.68;100.00
46614;BME280;32338;50.430;6.806;2023-01-09T06:53:08;65706.50;;;2.66;100.00
46614;BME280;32338;50.430;6.806;2023-01-09T06:55:36;65707.06;;;2.66;100.00
46614;BME280;32338;50.430;6.806;2023-01-09T06:58:20;65722.16;;;2.80;100.00
46614;BME280;32338;50.430;6.806;2023-01-09T07:01:00;65738.31;;;2.88;100.00
46614;BME280;32338;50.430;6.806;2023-01-09T07:03:35;65731.06;;;2.81;100.00
46614;BME280;32338;50.430;6.806;2023-01-09T07:06:07;65718.03;;;2.74;100.00
46614;BME280;32338;50.430;6.806;2023-01-09T07:08:36;65710.78;;;2.67;100.00
46614;BME280;32338;50.430;6.806;2023-01-09T07:11:03;65713.38;;;2.67;100.00
46614;BME280;32338;50.430;6.806;2023-01-09T07:13:30;65708.53;;;2.65;100.00
46614;BME280;32338;50.430;6.806;2023-01-09T07:16:00;65719.72;;;2.75;100.00
46614;BME280;32338;50.430;6.806;2023-01-09T07:18:37;65716.38;;;2.72;100.00
46614;BME280;32338;50.430;6.806;2023-01-09T07:21:07;65714.69;;;2.71;100.00
46614;BME280;32338;50.430;6.806;2023-01-09T07:23:44;65709.31;;;2.68;100.00
46614;BME280;32338;50.430;6.806;2023-01-09T07:26:21;65714.19;;;2.78;100.00
46614;BME280;32338;50.430;6.806;2023-01-09T07:28:52;65721.19;;;2.74;100.00
46614;BME280;32338;50.430;6.806;2023-01-09T07:31:22;65725.66;;;2.79;100.00
46614;BME280;32338;50.430;6.806;2023-01-09T07:34:08;65734.06;;;2.86;100.00
46614;BME280;32338;50.430;6.806;2023-01-09T07:36:47;65713.78;;;2.72;100.00
46614;BME280;32338;50.430;6.806;2023-01-09T07:39:20;65721.28;;;2.82;100.00
46614;BME280;32338;50.430;6.806;2023-01-09T07:41:57;65724.53;;;2.78;100.00
46614;BME280;32338;50.430;6.806;2023-01-09T07:44:32;65715.44;;;2.74;100.00
46614;BME280;32338;50.430;6.806;2023-01-09T07:47:05;65725.53;;;2.83;100.00
46614;BME280;32338;50.430;6.806;2023-01-09T07:49:50;65727.34;;;2.80;100.00
46614;BME280;32338;50.430;6.806;2023-01-09T07:52:23;65721.81;;;2.82;100.00
46614;BME280;32338;50.430;6.806;2023-01-09T07:54:55;65725.31;;;2.81;100.00
46614;BME280;32338;50.430;6.806;2023-01-09T07:57:36;65722.31;;;2.75;100.00
46614;BME280;32338;50.430;6.806;2023-01-09T08:00:04;65722.31;;;2.75;100.00
46614;BME280;32338;50.430;6.806;2023-01-09T08:02:31;65716.56;;;2.75;100.00
46614;BME280;32338;50.430;6.806;2023-01-09T08:04:59;65721.75;;;2.75;100.00
46614;BME280;32338;50.430;6.806;2023-01-09T08:07:26;65721.41;;;2.77;100.00
46614;BME280;32338;50.430;6.806;2023-01-09T08:09:52;65719.03;;;2.80;100.00
46614;BME280;32338;50.430;6.806;2023-01-09T08:12:19;65724.53;;;2.78;100.00
46614;BME280;32338;50.430;6.806;2023-01-09T08:14:46;65728.66;;;2.84;100.00
46614;BME280;32338;50.430;6.806;2023-01-09T08:17:12;65726.66;;;2.84;100.00
46614;BME280;32338;50.430;6.806;2023-01-09T08:19:51;65728.13;;;2.83;100.00
46614;BME280;32338;50.430;6.806;2023-01-09T08:22:26;65724.41;;;2.82;100.00
46614;BME280;32338;50.430;6.806;2023-01-09T08:24:53;65729.25;;;2.84;100.00
46614;BME280;32338;50.430;6.806;2023-01-09T08:27:19;65737.22;;;2.87;100.00
46614;BME280;32338;50.430;6.806;2023-01-09T08:29:46;65731.13;;;2.88;100.00
46614;BME280;32338;50.430;6.806;2023-01-09T08:32:21;65731.47;;;2.86;100.00
46614;BME280;32338;50.430;6.806;2023-01-09T08:35:04;65730.91;;;2.86;100.00
46614;BME280;32338;50.430;6.806;2023-01-09T08:37:46;65737.06;;;2.91;100.00
46614;BME280;32338;50.430;6.806;2023-01-09T08:40:15;65734.84;;;2.89;100.00
46614;BME280;32338;50.430;6.806;2023-01-09T08:42:41;65741.91;;;2.94;100.00
46614;BME280;32338;50.430;6.806;2023-01-09T08:45:25;65734.47;;;2.91;100.00
46614;BME280;32338;50.430;6.806;2023-01-09T08:48:10;65747.69;;;3.01;100.00
46614;BME280;32338;50.430;6.806;2023-01-09T08:50:37;65746.56;;;3.00;100.00
46614;BME280;32338;50.430;6.806;2023-01-09T08:53:05;65754.22;;;3.05;100.00
46614;BME280;32338;50.430;6.806;2023-01-09T08:55:32;65742.31;;;2.99;100.00
46614;BME280;32338;50.430;6.806;2023-01-09T08:57:58;65742.72;;;3.04;100.00
46614;BME280;32338;50.430;6.806;2023-01-09T09:00:25;65758.34;;;3.11;100.00
46614;BME280;32338;50.430;6.806;2023-01-09T09:02:53;65762.81;;;3.15;100.00
46614;BME280;32338;50.430;6.806;2023-01-09T09:05:21;65759.81;;;3.10;100.00
46614;BME280;32338;50.430;6.806;2023-01-09T09:07:47;65764.72;;;3.19;100.00
46614;BME280;32338;50.430;6.806;2023-01-09T09:10:16;65758.34;;;3.11;100.00
46614;BME280;32338;50.430;6.806;2023-01-09T09:12:43;65758.88;;;3.12;100.00
46614;BME280;32338;50.430;6.806;2023-01-09T09:15:13;65759.09;;;3.14;100.00
46614;BME280;32338;50.430;6.806;2023-01-09T09:17:44;65775.69;;;3.27;100.00
46614;BME280;32338;50.430;6.806;2023-01-09T09:20:11;65763.78;;;3.21;100.00
46614;BME280;32338;50.430;6.806;2023-01-09T09:22:37;65766.94;;;3.21;100.00
46614;BME280;32338;50.430;6.806;2023-01-09T09:25:05;65774.16;;;3.21;100.00
46614;BME280;32338;50.430;6.806;2023-01-09T09:27:33;65772.69;;;3.22;100.00
46614;BME280;32338;50.430;6.806;2023-01-09T09:30:03;65785.56;;;3.34;100.00
46614;BME280;32338;50.430;6.806;2023-01-09T09:32:30;65784.09;;;3.35;100.00
46614;BME280;32338;50.430;6.806;2023-01-09T09:34:59;65789.34;;;3.42;100.00
46614;BME280;32338;50.430;6.806;2023-01-09T09:37:26;65789.69;;;3.40;100.00
46614;BME280;32338;50.430;6.806;2023-01-09T09:39:53;65797.53;;;3.47;100.00
46614;BME280;32338;50.430;6.806;2023-01-09T09:42:38;65795.47;;;3.48;100.00
46614;BME280;32338;50.430;6.806;2023-01-09T09:45:36;65791.16;;;3.39;100.00
46614;BME280;32338;50.430;6.806;2023-01-09T09:48:17;65785.75;;;3.36;100.00
46614;BME280;32338;50.430;6.806;2023-01-09T09:53:57;65794.72;;;3.45;100.00
46614;BME280;32338;50.430;6.806;2023-01-09T09:56:29;65793.59;;;3.44;100.00
46614;BME280;32338;50.430;6.806;2023-01-09T09:59:03;65801.44;;;3.51;100.00
46614;BME280;32338;50.430;6.806;2023-01-09T10:04:19;65798.84;;;3.51;100.00
46614;BME280;32338;50.430;6.806;2023-01-09T10:06:50;65807.59;;;3.56;100.00
46614;BME280;32338;50.430;6.806;2023-01-09T10:09:24;65818.03;;;3.64;100.00
46614;BME280;32338;50.430;6.806;2023-01-09T10:12:04;65817.31;;;3.68;100.00
46614;BME280;32338;50.430;6.806;2023-01-09T10:14:37;65822.50;;;3.68;100.00
46614;BME280;32338;50.430;6.806;2023-01-09T10:17:38;65815.22;;;3.61;100.00
46614;BME280;32338;50.430;6.806;2023-01-09T10:20:34;65813.19;;;3.62;100.00
46614;BME280;32338;50.430;6.806;2023-01-09T10:23:12;65810.59;;;3.62;100.00
46614;BME280;32338;50.430;6.806;2023-01-09T10:25:49;65818.44;;;3.69;100.00
46614;BME280;32338;50.430;6.806;2023-01-09T10:28:28;65818.44;;;3.69;100.00
46614;BME280;32338;50.430;6.806;2023-01-09T10:31:03;65827.00;;;3.72;100.00
46614;BME280;32338;50.430;6.806;2023-01-09T10:33:42;65827.75;;;3.75;100.00
46614;BME280;32338;50.430;6.806;2023-01-09T10:36:38;65825.16;;;3.75;100.00
46614;BME280;32338;50.430;6.806;2023-01-09T10:39:18;65842.31;;;3.88;100.00
46614;BME280;32338;50.430;6.806;2023-01-09T10:41:54;65833.34;;;3.80;100.00
46614;BME280;32338;50.430;6.806;2023-01-09T10:44:27;65844.53;;;3.90;100.00
46614;BME280;32338;50.430;6.806;2023-01-09T10:47:01;65841.19;;;3.87;100.00
46614;BME280;32338;50.430;6.806;2023-01-09T10:49:31;65851.28;;;3.97;100.00
46614;BME280;32338;50.430;6.806;2023-01-09T10:52:08;65847.91;;;3.94;100.00
46614;BME280;32338;50.430;6.806;2023-01-09T10:54:42;65851.63;;;3.95;100.00
46614;BME280;32338;50.430;6.806;2023-01-09T10:57:13;65845.13;;;3.91;100.00
46614;BME280;32338;50.430;6.806;2023-01-09T10:59:44;65842.53;;;3.91;100.00
46614;BME280;32338;50.430;6.806;2023-01-09T11:02:24;65845.66;;;3.92;100.00
46614;BME280;32338;50.430;6.806;2023-01-09T11:04:52;65840.44;;;3.84;100.00
46614;BME280;32338;50.430;6.806;2023-01-09T11:07:21;65838.41;;;3.85;100.00
46614;BME280;32338;50.430;6.806;2023-01-09T11:09:57;65831.34;;;3.81;100.00
46614;BME280;32338;50.430;6.806;2023-01-09T11:12:27;65851.44;;;3.92;100.00
46614;BME280;32338;50.430;6.806;2023-01-09T11:15:25;65849.03;;;3.95;100.00
46614;BME280;32338;50.430;6.806;2023-01-09T11:18:19;65844.97;;;3.96;100.00
46614;BME280;32338;50.430;6.806;2023-01-09T11:20:46;65851.47;;;3.99;100.00
46614;BME280;32338;50.430;6.806;2023-01-09T11:23:33;65859.47;;;4.02;100.00
46614;BME280;32338;50.430;6.806;2023-01-09T11:26:01;65855.97;;;4.03;100.00
46614;BME280;32338;50.430;6.806;2023-01-09T11:28:27;65865.63;;;4.08;100.00
46614;BME280;32338;50.430;6.806;2023-01-09T11:31:00;65861.56;;;4.09;100.00
46614;BME280;32338;50.430;6.806;2023-01-09T11:33:33;65869.56;;;4.11;100.00
46614;BME280;32338;50.430;6.806;2023-01-09T11:36:05;65891.41;;;4.31;100.00
46614;BME280;32338;50.430;6.806;2023-01-09T11:38:48;65895.75;;;4.40;100.00
46614;BME280;32338;50.430;6.806;2023-01-09T11:41:18;65876.34;;;4.25;100.00
46614;BME280;32338;50.430;6.806;2023-01-09T11:43:47;65883.75;;;4.27;100.00
46614;BME280;32338;50.430;6.806;2023-01-09T11:46:33;65880.03;;;4.26;100.00
46614;BME280;32338;50.430;6.806;2023-01-09T11:49:05;65889.38;;;4.32;100.00
46614;BME280;32338;50.430;6.806;2023-01-09T11:51:33;65888.81;;;4.31;100.00
46614;BME280;32338;50.430;6.806;2023-01-09T11:54:15;65879.28;;;4.22;100.00
46614;BME280;32338;50.430;6.806;2023-01-09T11:56:43;65880.41;;;4.24;100.00
46614;BME280;32338;50.430;6.806;2023-01-09T11:59:13;65889.16;;;4.29;100.00
46614;BME280;32338;50.430;6.806;2023-01-09T12:02:05;65883.75;;;4.27;100.00
46614;BME280;32338;50.430;6.806;2023-01-09T12:04:49;65885.47;;;4.28;100.00
46614;BME280;32338;50.430;6.806;2023-01-09T12:07:39;65871.09;;;4.17;100.00
46614;BME280;32338;50.430;6.806;2023-01-09T12:10:26;65879.09;;;4.20;100.00
46614;BME280;32338;50.430;6.806;2023-01-09T12:13:02;65869.41;;;4.16;100.00
46614;BME280;32338;50.430;6.806;2023-01-09T12:15:37;65866.03;;;4.13;100.00
46614;BME280;32338;50.430;6.806;2023-01-09T12:18:31;65889.16;;;4.29;100.00
46614;BME280;32338;50.430;6.806;2023-01-09T12:21:18;65883.22;;;4.26;100.00
46614;BME280;32338;50.430;6.806;2023-01-09T12:23:59;65877.03;;;4.20;100.00
46614;BME280;32338;50.430;6.806;2023-01-09T12:26:36;65874.25;;;4.18;100.00
46614;BME280;32338;50.430;6.806;2023-01-09T12:29:22;65862.69;;;4.10;100.00
46614;BME280;32338;50.430;6.806;2023-01-09T12:35:27;65865.63;;;4.08;100.00
46614;BME280;32338;50.430;6.806;2023-01-09T12:38:12;65870.88;;;4.15;100.00
46614;BME280;32338;50.430;6.806;2023-01-09T12:40:51;65870.31;;;4.14;100.00
46614;BME280;32338;50.430;6.806;2023-01-09T12:43:31;65876.28;;;4.17;100.00
46614;BME280;32338;50.430;6.806;2023-01-09T12:46:09;65868.09;;;4.12;100.00
46614;BME280;32338;50.430;6.806;2023-01-09T12:49:05;65859.13;;;4.04;100.00
46614;BME280;32338;50.430;6.806;2023-01-09T12:51:41;65869.56;;;4.11;100.00
46614;BME280;32338;50.430;6.806;2023-01-09T12:54:16;65847.91;;;3.94;100.00
46614;BME280;32338;50.430;6.806;2023-01-09T12:56:46;65836.34;;;3.85;100.00
46614;BME280;32338;50.430;6.806;2023-01-09T12:59:21;65832.09;;;3.84;100.00
46614;BME280;32338;50.430;6.806;2023-01-09T13:01:59;65841.53;;;3.85;100.00
46614;BME280;32338;50.430;6.806;2023-01-09T13:04:35;65830.91;;;3.76;100.00
46614;BME280;32338;50.430;6.806;2023-01-09T13:07:08;65821.94;;;3.67;100.00
46614;BME280;32338;50.430;6.806;2023-01-09T13:09:46;65833.72;;;3.78;100.00
46614;BME280;32338;50.430;6.806;2023-01-09T13:12:16;65811.50;;;3.60;100.00
46614;BME280;32338;50.430;6.806;2023-01-09T13:14:51;65799.41;;;3.51;100.00
46614;BME280;32338;50.430;6.806;2023-01-09T13:17:24;65795.63;;;3.43;100.00
46614;BME280;32338;50.430;6.806;2023-01-09T13:19:51;65790.22;;;3.40;100.00
46614;BME280;32338;50.430;6.806;2023-01-09T13:22:19;65781.84;;;3.33;100.00
46614;BME280;32338;50.430;6.806;2023-01-09T13:25:06;65781.28;;;3.32;100.00
46614;BME280;32338;50.430;6.806;2023-01-09T13:27:47;65768.59;;;3.23;100.00
46614;BME280;32338;50.430;6.806;2023-01-09T13:30:21;65768.41;;;3.20;100.00
46614;BME280;32338;50.430;6.806;2023-01-09T13:33:02;65771.00;;;3.20;100.00
46614;BME280;32338;50.430;6.806;2023-01-09T13:35:33;65766.53;;;3.16;100.00
46614;BME280;32338;50.430;6.806;2023-01-09T13:38:00;65764.13;;;3.19;100.00
46614;BME280;32338;50.430;6.806;2023-01-09T13:40:28;65773.44;;;3.25;100.00
46614;BME280;32338;50.430;6.806;2023-01-09T13:43:00;65772.13;;;3.21;100.00
46614;BME280;32338;50.430;6.806;2023-01-09T13:45:29;65779.03;;;3.30;100.00
46614;BME280;32338;50.430;6.806;2023-01-09T13:54:01;65789.69;;;3.40;100.00
46614;BME280;32338;50.430;6.806;2023-01-09T13:56:29;65792.47;;;3.43;100.00
46614;BME280;32338;50.430;6.806;2023-01-09T13:58:58;65797.88;;;3.45;100.00
46614;BME280;32338;50.430;6.806;2023-01-09T14:01:40;65805.56;;;3.57;100.00
46614;BME280;32338;50.430;6.806;2023-01-09T14:04:36;65796.94;;;3.47;100.00
46614;BME280;32338;50.430;6.806;2023-01-09T14:07:14;65797.72;;;3.50;100.00
46614;BME280;32338;50.430;6.806;2023-01-09T14:09:45;65795.84;;;3.46;100.00
46614;BME280;32338;50.430;6.806;2023-01-09T14:12:18;65797.72;;;3.50;100.00